createdAt,value
2023-02-06T00:01:58.768Z,7.15
2023-02-06T00:04:25.068Z,7.38
2023-02-06T00:06:51.361Z,8.07
2023-02-06T00:09:17.844Z,8.18
2023-02-06T00:11:44.151Z,9.10
2023-02-06T00:14:10.513Z,7.82
2023-02-06T00:16:37.197Z,7.28
2023-02-06T00:19:03.905Z,8.57
2023-02-06T00:21:30.820Z,7.68
2023-02-06T00:23:59.650Z,7.78
2023-02-06T00:26:26.202Z,7.93
2023-02-06T00:28:52.654Z,7.50
2023-02-06T00:31:19.240Z,7.40
2023-02-06T00:33:45.675Z,8.23
2023-02-06T00:36:11.997Z,7.22
2023-02-06T00:38:38.464Z,8.32
2023-02-06T00:41:05.478Z,7.70
2023-02-06T00:43:32.101Z,6.90
2023-02-06T00:45:58.645Z,7.40
2023-02-06T00:48:25.575Z,8.20
2023-02-06T00:50:53.025Z,7.88
2023-02-06T00:53:19.474Z,7.65
2023-02-06T00:55:45.758Z,7.63
2023-02-06T00:58:12.155Z,7.18
2023-02-06T01:00:38.448Z,7.05
2023-02-06T01:03:04.878Z,7.75
2023-02-06T01:05:31.364Z,7.60
2023-02-06T01:07:57.675Z,6.65
2023-02-06T01:10:23.970Z,7.68
2023-02-06T01:12:50.372Z,7.88
2023-02-06T01:15:16.676Z,6.07
2023-02-06T01:17:43.135Z,6.60
2023-02-06T01:20:12.113Z,7.95
2023-02-06T01:22:39.009Z,6.80
2023-02-06T01:25:06.396Z,7.93
2023-02-06T01:27:36.164Z,6.70
2023-02-06T01:30:03.770Z,7.07
2023-02-06T01:32:30.223Z,7.53
2023-02-06T01:34:56.540Z,7.95
2023-02-06T01:37:22.933Z,7.63
2023-02-06T01:39:49.224Z,7.47
2023-02-06T01:42:15.616Z,7.28
2023-02-06T01:44:42.092Z,6.38
2023-02-06T01:47:10.420Z,6.25
2023-02-06T01:49:42.644Z,6.90
2023-02-06T01:52:17.955Z,7.25
2023-02-06T01:54:50.576Z,6.82
2023-02-06T01:57:18.310Z,6.55
2023-02-06T01:59:49.394Z,7.25
2023-02-06T02:02:15.987Z,6.18
2023-02-06T02:04:43.333Z,6.38
2023-02-06T02:07:19.798Z,6.82
2023-02-06T02:09:46.180Z,6.68
2023-02-06T02:12:13.604Z,6.25
2023-02-06T02:14:43.015Z,7.22
2023-02-06T02:17:27.864Z,7.05
2023-02-06T02:20:12.853Z,6.20
2023-02-06T02:22:58.276Z,7.35
2023-02-06T02:25:45.504Z,6.93
2023-02-06T02:31:30.138Z,6.10
2023-02-06T02:34:28.985Z,6.80
2023-02-06T02:37:13.353Z,5.95
2023-02-06T02:39:48.860Z,5.40
2023-02-06T02:42:40.389Z,6.72
2023-02-06T02:45:16.298Z,6.50
2023-02-06T02:47:51.340Z,6.40
2023-02-06T02:50:18.576Z,6.38
2023-02-06T02:52:45.308Z,5.90
2023-02-06T02:55:20.860Z,5.47
2023-02-06T02:57:53.608Z,5.72
2023-02-06T03:00:23.361Z,5.75
2023-02-06T03:02:51.458Z,6.50
2023-02-06T03:08:10.511Z,4.95
2023-02-06T03:11:12.348Z,4.85
2023-02-06T03:13:46.289Z,4.55
2023-02-06T03:16:57.512Z,6.35
2023-02-06T03:19:29.356Z,5.25
2023-02-06T03:21:55.753Z,5.95
2023-02-06T03:24:29.005Z,5.13
2023-02-06T03:27:00.473Z,6.05
2023-02-06T03:29:29.311Z,5.75
2023-02-06T03:31:59.456Z,6.28
2023-02-06T03:34:35.115Z,5.65
2023-02-06T03:37:01.837Z,5.57
2023-02-06T03:39:28.225Z,6.15
2023-02-06T03:41:58.485Z,5.57
2023-02-06T03:44:28.065Z,5.43
2023-02-06T03:46:58.393Z,5.85
2023-02-06T03:49:28.861Z,6.13
2023-02-06T03:52:23.649Z,5.50
2023-02-06T03:54:54.680Z,4.82
2023-02-06T03:57:23.112Z,5.05
2023-02-06T03:59:49.589Z,6.15
2023-02-06T04:02:17.482Z,6.00
2023-02-06T04:04:45.270Z,6.10
2023-02-06T04:07:18.113Z,6.25
2023-02-06T04:09:44.401Z,6.10
2023-02-06T04:12:10.958Z,5.25
2023-02-06T04:14:37.794Z,6.55
2023-02-06T04:17:05.381Z,6.18
2023-02-06T04:19:32.432Z,6.18
2023-02-06T04:21:59.019Z,5.72
2023-02-06T04:24:25.638Z,5.95
2023-02-06T04:26:52.178Z,6.57
2023-02-06T04:29:18.764Z,5.35
2023-02-06T04:31:45.078Z,5.70
2023-02-06T04:34:11.483Z,6.22
2023-02-06T04:36:38.064Z,6.18
2023-02-06T04:39:05.748Z,6.53
2023-02-06T04:41:32.394Z,6.63
2023-02-06T04:43:58.783Z,5.95
2023-02-06T04:46:25.586Z,6.22
2023-02-06T04:48:51.964Z,5.90
2023-02-06T04:51:18.334Z,5.43
2023-02-06T04:53:44.852Z,6.00
2023-02-06T04:56:12.327Z,5.85
2023-02-06T04:58:39.758Z,5.88
2023-02-06T05:01:06.700Z,5.60
2023-02-06T05:03:33.249Z,6.32
2023-02-06T05:06:00.831Z,5.68
2023-02-06T05:08:27.183Z,6.82
2023-02-06T05:10:53.699Z,6.07
2023-02-06T05:13:20.031Z,6.20
2023-02-06T05:15:46.566Z,6.05
2023-02-06T05:18:13.744Z,7.38
2023-02-06T05:20:40.123Z,5.95
2023-02-06T05:23:06.582Z,6.07
2023-02-06T05:25:35.000Z,6.53
2023-02-06T05:28:01.676Z,5.85
2023-02-06T05:30:28.228Z,5.65
2023-02-06T05:32:54.629Z,6.03
2023-02-06T05:35:20.932Z,5.68
2023-02-06T05:37:47.315Z,5.70
2023-02-06T05:40:13.643Z,6.35
2023-02-06T05:42:40.037Z,6.65
2023-02-06T05:45:07.081Z,6.82
2023-02-06T05:47:33.426Z,7.13
2023-02-06T05:49:59.762Z,8.48
2023-02-06T05:52:26.051Z,7.13
2023-02-06T05:54:52.564Z,6.22
2023-02-06T05:57:18.871Z,5.90
2023-02-06T05:59:45.207Z,6.68
2023-02-06T06:02:11.664Z,6.00
2023-02-06T06:04:38.003Z,6.55
2023-02-06T06:07:04.628Z,7.20
2023-02-06T06:09:30.955Z,6.53
2023-02-06T06:11:57.309Z,6.72
2023-02-06T06:14:23.603Z,6.95
2023-02-06T06:16:49.892Z,8.07
2023-02-06T06:19:16.244Z,6.93
2023-02-06T06:21:42.534Z,7.43
2023-02-06T06:24:08.975Z,6.35
2023-02-06T06:26:35.441Z,7.22
2023-02-06T06:29:01.752Z,7.47
2023-02-06T06:31:28.188Z,6.20
2023-02-06T06:33:54.496Z,6.97
2023-02-06T06:36:21.271Z,6.72
2023-02-06T06:38:47.676Z,6.90
2023-02-06T06:41:14.022Z,6.65
2023-02-06T06:43:40.351Z,7.07
2023-02-06T06:46:06.797Z,7.13
2023-02-06T06:48:33.288Z,7.88
2023-02-06T06:50:59.672Z,7.45
2023-02-06T06:53:26.087Z,7.53
2023-02-06T06:55:52.371Z,7.90
2023-02-06T06:58:18.775Z,7.53
2023-02-06T07:00:45.469Z,6.90
2023-02-06T07:03:11.853Z,7.70
2023-02-06T07:05:38.903Z,7.95
2023-02-06T07:08:05.319Z,9.32
2023-02-06T07:10:31.642Z,9.00
2023-02-06T07:12:57.946Z,10.68
2023-02-06T07:15:24.233Z,8.75
2023-02-06T07:17:50.568Z,8.68
2023-02-06T07:20:17.107Z,8.30
2023-02-06T07:22:43.445Z,7.80
2023-02-06T07:25:10.382Z,7.40
2023-02-06T07:27:36.786Z,7.32
2023-02-06T07:30:05.607Z,7.50
2023-02-06T07:32:37.259Z,7.13
2023-02-06T07:35:04.056Z,6.75
2023-02-06T07:37:30.394Z,7.55
2023-02-06T07:39:56.862Z,8.88
2023-02-06T07:42:23.213Z,7.47
2023-02-06T07:44:49.664Z,7.68
2023-02-06T07:47:16.397Z,7.85
2023-02-06T07:49:42.760Z,9.15
2023-02-06T07:52:09.055Z,6.72
2023-02-06T07:54:35.346Z,7.72
2023-02-06T07:57:01.692Z,7.70
2023-02-06T07:59:28.068Z,7.05
2023-02-06T08:01:54.411Z,7.97
2023-02-06T08:04:20.723Z,7.00
2023-02-06T08:06:47.664Z,9.38
2023-02-06T08:09:15.468Z,9.73
2023-02-06T08:11:41.791Z,7.93
2023-02-06T08:14:08.113Z,9.15
2023-02-06T08:16:34.439Z,9.55
2023-02-06T08:19:00.785Z,9.68
2023-02-06T08:21:27.254Z,8.60
2023-02-06T08:23:59.078Z,8.05
2023-02-06T08:26:27.865Z,9.38
2023-02-06T08:28:55.461Z,9.35
2023-02-06T08:31:28.816Z,9.10
2023-02-06T08:33:56.015Z,9.30
2023-02-06T08:36:23.718Z,9.20
2023-02-06T08:38:51.099Z,9.48
2023-02-06T08:41:23.793Z,10.05
2023-02-06T08:43:51.840Z,9.23
2023-02-06T08:46:19.787Z,8.85
2023-02-06T08:51:12.929Z,8.82
2023-02-06T08:53:39.298Z,8.10
2023-02-06T08:56:08.711Z,9.10
2023-02-06T08:58:35.984Z,9.18
2023-02-06T09:01:12.993Z,8.15
2023-02-06T09:03:39.807Z,10.43
2023-02-06T09:06:10.361Z,10.40
2023-02-06T09:08:38.277Z,8.90
2023-02-06T09:11:13.253Z,8.65
2023-02-06T09:13:39.634Z,9.13
2023-02-06T09:16:06.864Z,9.88
2023-02-06T09:18:33.648Z,9.13
2023-02-06T09:21:15.228Z,8.85
2023-02-06T09:23:44.049Z,8.98
2023-02-06T09:26:11.586Z,8.60
2023-02-06T09:28:38.048Z,10.35
2023-02-06T09:31:04.604Z,9.00
2023-02-06T09:33:30.962Z,9.00
2023-02-06T09:36:04.368Z,7.90
2023-02-06T09:38:31.067Z,8.00
2023-02-06T09:41:01.106Z,7.47
2023-02-06T09:43:30.397Z,9.90
2023-02-06T09:46:02.099Z,8.13
2023-02-06T09:48:34.667Z,10.10
2023-02-06T09:51:15.299Z,10.45
2023-02-06T09:54:01.446Z,9.32
2023-02-06T09:59:08.060Z,8.75
2023-02-06T10:01:42.550Z,8.57
2023-02-06T10:04:18.210Z,9.85
2023-02-06T10:06:55.858Z,9.30
2023-02-06T10:09:34.185Z,8.57
2023-02-06T10:12:12.922Z,7.93
2023-02-06T10:14:46.352Z,8.40
2023-02-06T10:17:20.415Z,9.57
2023-02-06T10:20:05.210Z,8.48
2023-02-06T10:22:40.187Z,8.85
2023-02-06T10:25:22.470Z,8.52
2023-02-06T10:27:56.568Z,8.15
2023-02-06T10:30:53.871Z,7.07
2023-02-06T10:33:33.712Z,7.95
2023-02-06T10:36:22.803Z,8.07
2023-02-06T10:38:54.841Z,7.28
2023-02-06T10:41:26.902Z,8.45
2023-02-06T10:44:06.169Z,8.55
2023-02-06T10:46:48.248Z,6.93
2023-02-06T10:49:29.204Z,7.57
2023-02-06T10:52:02.668Z,6.40
2023-02-06T10:54:37.576Z,7.25
2023-02-06T10:57:12.421Z,5.95
2023-02-06T10:59:43.152Z,6.55
2023-02-06T11:02:09.490Z,6.63
2023-02-06T11:04:40.307Z,6.43
2023-02-06T11:07:17.320Z,6.72
2023-02-06T11:09:44.355Z,6.13
2023-02-06T11:12:46.597Z,6.07
2023-02-06T11:15:31.416Z,6.15
2023-02-06T11:17:57.773Z,6.10
2023-02-06T11:20:30.484Z,6.40
2023-02-06T11:22:56.883Z,5.85
2023-02-06T11:25:31.731Z,6.88
2023-02-06T11:28:00.424Z,6.80
2023-02-06T11:30:35.667Z,6.38
2023-02-06T11:33:08.715Z,6.63
2023-02-06T11:35:46.019Z,6.57
2023-02-06T11:38:21.775Z,6.30
2023-02-06T11:40:55.605Z,6.50
2023-02-06T11:46:04.688Z,6.57
2023-02-06T11:48:32.904Z,6.85
2023-02-06T11:50:59.286Z,7.13
2023-02-06T11:53:25.628Z,7.43
2023-02-06T11:56:19.478Z,6.78
2023-02-06T11:58:46.529Z,5.93
2023-02-06T12:01:21.139Z,6.07
2023-02-06T12:03:50.210Z,6.20
2023-02-06T12:06:24.643Z,7.15
2023-02-06T12:08:53.465Z,7.72
2023-02-06T12:11:36.603Z,7.45
2023-02-06T12:14:25.187Z,7.20
2023-02-06T12:16:52.551Z,7.18
2023-02-06T12:19:23.767Z,7.03
2023-02-06T12:22:00.016Z,6.80
2023-02-06T12:24:34.588Z,5.57
2023-02-06T12:27:06.308Z,7.18
2023-02-06T12:29:37.182Z,6.38
2023-02-06T12:32:12.600Z,6.68
2023-02-06T12:34:54.022Z,7.32
2023-02-06T12:37:31.455Z,6.47
2023-02-06T12:39:59.783Z,6.50
2023-02-06T12:43:03.605Z,7.75
2023-02-06T12:45:48.085Z,6.10
2023-02-06T12:48:21.195Z,6.78
2023-02-06T12:51:12.360Z,7.68
2023-02-06T12:53:48.268Z,7.03
2023-02-06T12:56:25.000Z,6.45
2023-02-06T12:59:02.872Z,8.43
2023-02-06T13:01:45.636Z,7.45
2023-02-06T13:04:33.720Z,5.85
2023-02-06T13:07:06.935Z,6.28
2023-02-06T13:09:36.693Z,5.72
2023-02-06T13:12:15.499Z,6.30
2023-02-06T13:14:54.152Z,6.07
2023-02-06T13:17:24.182Z,5.95
2023-02-06T13:20:23.664Z,5.95
2023-02-06T13:22:54.979Z,6.90
2023-02-06T13:25:30.186Z,6.50
2023-02-06T13:28:01.635Z,5.53
2023-02-06T13:30:31.052Z,6.68
2023-02-06T13:33:08.478Z,6.35
2023-02-06T13:35:35.021Z,6.18
2023-02-06T13:38:23.400Z,5.50
2023-02-06T13:41:14.668Z,5.78
2023-02-06T13:44:05.349Z,6.18
2023-02-06T13:46:51.863Z,5.82
2023-02-06T13:49:47.847Z,6.45
2023-02-06T13:52:25.760Z,6.45
2023-02-06T13:54:55.089Z,6.85
2023-02-06T13:57:49.276Z,5.80
2023-02-06T14:00:20.468Z,5.25
2023-02-06T14:02:53.822Z,6.25
2023-02-06T14:05:25.514Z,5.57
2023-02-06T14:08:12.105Z,8.13
2023-02-06T14:11:01.535Z,6.22
2023-02-06T14:13:53.855Z,5.95
2023-02-06T14:16:46.468Z,6.00
2023-02-06T14:19:30.213Z,5.88
2023-02-06T14:22:21.954Z,6.35
2023-02-06T14:25:00.667Z,5.80
2023-02-06T14:27:39.470Z,4.57
2023-02-06T14:30:41.346Z,4.63
2023-02-06T14:33:16.796Z,5.07
2023-02-06T14:36:05.972Z,4.32
2023-02-06T14:39:02.714Z,5.25
2023-02-06T14:41:31.825Z,4.90
2023-02-06T14:43:59.417Z,5.53
2023-02-06T14:46:27.380Z,4.20
2023-02-06T14:48:57.098Z,4.63
2023-02-06T14:51:27.347Z,5.10
2023-02-06T14:53:59.523Z,4.40
2023-02-06T14:56:37.450Z,5.38
2023-02-06T14:59:12.506Z,5.03
2023-02-06T15:01:40.596Z,5.40
2023-02-06T15:04:11.915Z,5.32
2023-02-06T15:06:41.035Z,4.80
2023-02-06T15:09:08.396Z,4.70
2023-02-06T15:11:35.028Z,6.50
2023-02-06T15:14:18.860Z,5.43
2023-02-06T15:16:47.348Z,5.10
2023-02-06T15:19:23.120Z,4.43
2023-02-06T15:21:52.355Z,4.95
2023-02-06T15:24:37.263Z,4.53
2023-02-06T15:27:23.793Z,5.00
2023-02-06T15:29:50.976Z,4.95
2023-02-06T15:32:38.560Z,6.35
2023-02-06T15:35:20.379Z,5.22
2023-02-06T15:37:47.012Z,4.47
2023-02-06T15:40:19.516Z,4.85
2023-02-06T15:42:47.963Z,4.60
2023-02-06T15:45:28.422Z,4.65
2023-02-06T15:47:55.840Z,5.68
2023-02-06T15:50:26.538Z,5.45
2023-02-06T15:52:53.760Z,7.35
2023-02-06T15:55:25.849Z,5.32
2023-02-06T15:57:54.230Z,5.50
2023-02-06T16:00:25.600Z,5.65
2023-02-06T16:02:55.092Z,5.32
2023-02-06T16:05:42.735Z,4.90
2023-02-06T16:08:35.281Z,5.95
2023-02-06T16:11:07.579Z,5.80
2023-02-06T16:13:33.998Z,7.38
2023-02-06T16:16:09.317Z,5.90
2023-02-06T16:18:38.337Z,5.38
2023-02-06T16:21:16.577Z,5.30
2023-02-06T16:23:45.948Z,5.13
2023-02-06T16:26:25.891Z,5.97
2023-02-06T16:29:23.380Z,4.88
2023-02-06T16:31:58.138Z,7.28
2023-02-06T16:34:38.704Z,6.55
2023-02-06T16:37:06.414Z,7.05
2023-02-06T16:39:32.764Z,5.97
2023-02-06T16:41:59.071Z,6.10
2023-02-06T16:44:36.091Z,5.65
2023-02-06T16:47:13.157Z,7.32
2023-02-06T16:49:39.501Z,6.05
2023-02-06T16:52:06.604Z,8.00
2023-02-06T16:54:33.865Z,7.22
2023-02-06T16:57:16.796Z,8.38
2023-02-06T16:59:43.208Z,9.95
2023-02-06T17:02:12.087Z,7.57
2023-02-06T17:04:38.682Z,8.55
2023-02-06T17:07:05.855Z,7.40
2023-02-06T17:09:32.235Z,6.78
2023-02-06T17:11:58.541Z,7.72
2023-02-06T17:14:24.881Z,6.95
2023-02-06T17:16:51.220Z,6.65
2023-02-06T17:19:17.545Z,7.35
2023-02-06T17:21:43.863Z,6.85
2023-02-06T17:24:10.168Z,7.00
2023-02-06T17:26:36.613Z,7.13
2023-02-06T17:29:03.156Z,6.25
2023-02-06T17:31:29.584Z,6.80
2023-02-06T17:33:55.966Z,7.18
2023-02-06T17:36:22.677Z,6.75
2023-02-06T17:38:49.001Z,7.82
2023-02-06T17:41:15.310Z,6.70
2023-02-06T17:43:41.600Z,6.78
2023-02-06T17:46:07.980Z,6.70
2023-02-06T17:48:36.358Z,6.50
2023-02-06T17:51:04.431Z,6.47
2023-02-06T17:58:23.323Z,5.38
2023-02-06T18:00:49.857Z,4.82
2023-02-06T18:03:16.281Z,6.07
2023-02-06T18:05:42.843Z,4.85
2023-02-06T18:08:09.195Z,4.70
2023-02-06T18:10:35.814Z,4.32
2023-02-06T18:13:02.341Z,4.63
2023-02-06T18:15:30.942Z,4.90
2023-02-06T18:17:58.043Z,4.72
2023-02-06T18:20:24.645Z,6.50
2023-02-06T18:22:50.925Z,5.13
2023-02-06T18:25:17.375Z,4.50
2023-02-06T18:27:44.667Z,5.22
2023-02-06T18:30:11.898Z,4.70
2023-02-06T18:32:38.878Z,3.45
2023-02-06T18:35:07.102Z,3.95
2023-02-06T18:37:33.565Z,4.03
2023-02-06T18:39:59.904Z,3.88
2023-02-06T18:42:26.369Z,3.70
2023-02-06T18:44:52.657Z,3.63
2023-02-06T18:47:19.012Z,3.67
2023-02-06T18:49:45.763Z,4.18
2023-02-06T18:52:12.381Z,3.75
2023-02-06T18:54:38.848Z,4.35
2023-02-06T18:57:06.120Z,3.58
2023-02-06T18:59:32.512Z,4.40
2023-02-06T19:01:58.901Z,3.15
2023-02-06T19:04:25.351Z,4.13
2023-02-06T19:06:51.696Z,3.58
2023-02-06T19:09:18.683Z,4.57
2023-02-06T19:11:45.500Z,3.03
2023-02-06T19:14:16.003Z,4.85
2023-02-06T19:16:43.344Z,4.38
2023-02-06T19:19:11.123Z,5.30
2023-02-06T19:21:38.154Z,5.63
2023-02-06T19:24:05.573Z,5.53
2023-02-06T19:26:31.995Z,4.97
2023-02-06T19:28:58.543Z,4.60
2023-02-06T19:31:25.026Z,4.35
2023-02-06T19:33:53.988Z,3.70
2023-02-06T19:36:22.091Z,3.17
2023-02-06T19:38:49.240Z,3.95
2023-02-06T19:41:19.007Z,4.35
2023-02-06T19:43:45.306Z,3.80
2023-02-06T19:46:13.596Z,3.25
2023-02-06T19:48:41.275Z,3.05
2023-02-06T19:51:10.950Z,3.17
2023-02-06T19:53:37.358Z,3.85
2023-02-06T19:56:04.472Z,3.15
2023-02-06T19:58:31.468Z,3.30
2023-02-06T20:00:58.796Z,3.65
2023-02-06T20:03:25.635Z,3.75
2023-02-06T20:05:51.972Z,3.72
2023-02-06T20:08:18.443Z,3.55
2023-02-06T20:10:44.774Z,2.85
2023-02-06T20:13:11.120Z,3.50
2023-02-06T20:15:38.521Z,3.00
2023-02-06T20:18:05.231Z,3.45
2023-02-06T20:20:35.960Z,3.53
2023-02-06T20:23:02.542Z,3.60
2023-02-06T20:25:30.086Z,2.85
2023-02-06T20:27:56.520Z,2.92
2023-02-06T20:30:23.012Z,3.00
2023-02-06T20:32:49.325Z,3.15
2023-02-06T20:35:15.610Z,3.45
2023-02-06T20:37:41.976Z,3.63
2023-02-06T20:40:08.862Z,3.28
2023-02-06T20:42:35.184Z,3.47
2023-02-06T20:45:01.489Z,4.43
2023-02-06T20:47:27.818Z,3.88
2023-02-06T20:49:54.361Z,3.00
2023-02-06T20:52:20.673Z,3.75
2023-02-06T20:54:47.161Z,3.30
2023-02-06T20:57:13.449Z,2.97
2023-02-06T20:59:39.770Z,2.80
2023-02-06T21:02:06.162Z,3.40
2023-02-06T21:04:33.175Z,3.08
2023-02-06T21:06:59.561Z,3.40
2023-02-06T21:09:25.847Z,3.75
2023-02-06T21:11:52.277Z,3.80
2023-02-06T21:14:19.797Z,3.33
2023-02-06T21:16:46.878Z,3.95
2023-02-06T21:19:16.053Z,3.58
2023-02-06T21:21:45.965Z,3.63
2023-02-06T21:24:13.669Z,3.90
2023-02-06T21:26:40.024Z,3.80
2023-02-06T21:29:06.420Z,3.67
2023-02-06T21:31:37.505Z,4.70
2023-02-06T21:34:18.858Z,4.05
2023-02-06T21:36:45.528Z,4.15
2023-02-06T21:39:16.488Z,4.95
2023-02-06T21:41:43.547Z,4.13
2023-02-06T21:44:09.859Z,4.72
2023-02-06T21:46:36.295Z,4.53
2023-02-06T21:49:02.680Z,4.20
2023-02-06T21:51:28.970Z,3.95
2023-02-06T21:53:55.570Z,3.75
2023-02-06T21:56:24.793Z,3.95
2023-02-06T21:58:51.449Z,4.20
2023-02-06T22:01:23.965Z,3.58
2023-02-06T22:03:50.565Z,4.22
2023-02-06T22:06:17.715Z,3.95
2023-02-06T22:08:46.401Z,4.30
2023-02-06T22:11:15.618Z,3.88
2023-02-06T22:13:43.013Z,4.07
2023-02-06T22:16:11.161Z,4.82
2023-02-06T22:18:37.888Z,4.82
2023-02-06T22:21:10.270Z,3.85
2023-02-06T22:23:38.416Z,5.15
2023-02-06T22:26:07.303Z,4.22
2023-02-06T22:28:33.749Z,4.07
2023-02-06T22:31:15.774Z,4.43
2023-02-06T22:33:42.457Z,4.15
2023-02-06T22:36:11.617Z,5.20
2023-02-06T22:38:38.767Z,4.85
2023-02-06T22:41:07.560Z,5.10
2023-02-06T22:43:35.873Z,4.53
2023-02-06T22:46:02.541Z,4.32
2023-02-06T22:48:29.053Z,4.88
2023-02-06T22:50:55.785Z,4.78
2023-02-06T22:53:23.397Z,5.13
2023-02-06T22:55:49.776Z,5.18
2023-02-06T22:58:16.259Z,4.75
2023-02-06T23:00:42.752Z,4.78
2023-02-06T23:03:09.180Z,4.68
2023-02-06T23:05:35.732Z,5.05
2023-02-06T23:08:02.268Z,4.82
2023-02-06T23:10:28.552Z,4.85
2023-02-06T23:12:54.976Z,4.50
2023-02-06T23:15:21.265Z,5.63
2023-02-06T23:17:47.548Z,5.05
2023-02-06T23:20:13.856Z,5.30
2023-02-06T23:22:40.188Z,5.60
2023-02-06T23:25:06.761Z,6.43
2023-02-06T23:27:33.044Z,4.18
2023-02-06T23:29:59.447Z,5.45
2023-02-06T23:32:25.727Z,5.18
2023-02-06T23:34:52.014Z,6.20
2023-02-06T23:37:18.319Z,5.65
2023-02-06T23:39:44.592Z,5.88
2023-02-06T23:42:10.881Z,5.65
2023-02-06T23:44:37.189Z,4.30
2023-02-06T23:47:03.600Z,6.05
2023-02-06T23:49:29.889Z,5.15
2023-02-06T23:51:56.243Z,4.85
2023-02-06T23:54:22.552Z,5.78
2023-02-06T23:56:48.883Z,4.97
2023-02-06T23:59:15.192Z,5.30
